Time;durP1;ratioP1;P1;durP2;ratioP2;P2;SDS_P1;SDS_P2;PMS_P1;PMS_P2;Temp;Humidity;BMP_temperature;BMP_pressure;BME280_temperature;BME280_humidity;BME280_pressure;Samples;Min_cycle;Max_cycle;Signal;HPM_P1;HPM_P2
2022/08/21 00:00:21;;;;;;;51.50;9.78;;;;;;;17.91;100.00;99802.42;1718653;83;21125;-67
2022/08/21 00:02:52;;;;;;;45.78;10.08;;;;;;;17.92;100.00;99807.26;1718252;83;21199;-68
2022/08/21 00:05:18;;;;;;;38.42;10.60;;;;;;;17.90;100.00;99811.84;1718470;83;21076;-70
2022/08/21 00:07:45;;;;;;;38.20;10.40;;;;;;;17.88;100.00;99801.81;1718158;83;21069;-68
2022/08/21 00:10:12;;;;;;;43.35;10.70;;;;;;;17.87;100.00;99806.75;1718168;83;21053;-69
2022/08/21 00:12:40;;;;;;;42.80;10.70;;;;;;;17.83;100.00;99803.47;1717738;83;21045;-68
2022/08/21 00:15:07;;;;;;;45.38;10.65;;;;;;;17.79;100.00;99797.47;1718283;83;21513;-67
2022/08/21 00:17:35;;;;;;;36.03;10.68;;;;;;;17.76;100.00;99800.37;1718461;83;21057;-70
2022/08/21 00:20:06;;;;;;;35.08;10.95;;;;;;;17.76;100.00;99808.36;1718421;83;21604;-69
2022/08/21 00:22:32;;;;;;;51.42;11.25;;;;;;;17.76;100.00;99811.02;1718486;83;21092;-69
2022/08/21 00:24:59;;;;;;;40.90;10.23;;;;;;;17.75;100.00;99808.45;1718297;83;21124;-69
2022/08/21 00:27:25;;;;;;;48.05;10.45;;;;;;;17.71;100.00;99811.80;1718268;83;21792;-69
2022/08/21 00:29:53;;;;;;;42.67;9.93;;;;;;;17.72;100.00;99816.67;1717969;83;21541;-69
2022/08/21 00:32:24;;;;;;;42.75;10.10;;;;;;;17.71;100.00;99813.14;1718571;83;21523;-68
2022/08/21 00:34:51;;;;;;;34.95;9.90;;;;;;;17.71;100.00;99814.95;1718204;83;21154;-68
2022/08/21 00:37:18;;;;;;;39.27;10.00;;;;;;;17.67;100.00;99815.67;1718369;83;21022;-68
2022/08/21 00:39:45;;;;;;;37.80;8.98;;;;;;;17.65;100.00;99808.27;1718234;83;21358;-69
2022/08/21 00:42:14;;;;;;;34.40;9.65;;;;;;;17.62;100.00;99811.13;1718744;83;21068;-67
2022/08/21 00:44:41;;;;;;;36.30;9.15;;;;;;;17.63;100.00;99811.52;1718444;83;21037;-69
2022/08/21 00:47:08;;;;;;;41.92;8.33;;;;;;;17.60;100.00;99802.44;1718629;83;21033;-68
2022/08/21 00:49:35;;;;;;;40.80;8.68;;;;;;;17.58;100.00;99807.02;1718112;83;21085;-68
2022/08/21 00:52:01;;;;;;;41.02;9.90;;;;;;;17.56;100.00;99803.61;1718628;83;21198;-68
2022/08/21 00:54:30;;;;;;;58.58;9.68;;;;;;;17.54;100.00;99802.86;1739985;82;21041;-68
2022/08/21 00:57:00;;;;;;;40.55;8.25;;;;;;;17.56;100.00;99803.61;1748074;81;21048;-69
2022/08/21 00:59:27;;;;;;;27.77;8.75;;;;;;;17.54;100.00;99805.52;1748283;82;21046;-69
2022/08/21 01:01:54;;;;;;;32.75;8.65;;;;;;;17.50;100.00;99802.21;1747872;82;21037;-68
2022/08/21 01:04:21;;;;;;;34.48;8.00;;;;;;;17.49;100.00;99805.00;1748127;82;21767;-68
2022/08/21 01:06:48;;;;;;;40.98;9.63;;;;;;;17.51;100.00;99807.08;1720401;82;21514;-68
2022/08/21 01:09:14;;;;;;;38.78;8.43;;;;;;;17.49;100.00;99801.86;1748514;82;21833;-68
2022/08/21 01:11:42;;;;;;;51.60;9.48;;;;;;;17.50;100.00;99800.04;1747949;82;22199;-68
2022/08/21 01:14:12;;;;;;;32.65;7.92;;;;;;;17.49;100.00;99793.03;1748176;82;21001;-68
2022/08/21 01:16:41;;;;;;;43.15;9.05;;;;;;;17.50;100.00;99797.38;1748039;82;21975;-69
2022/08/21 01:19:07;;;;;;;42.70;8.35;;;;;;;17.51;100.00;99795.10;1748644;82;21037;-68
2022/08/21 01:21:34;;;;;;;34.70;8.58;;;;;;;17.50;100.00;99805.36;1748083;82;21578;-68
2022/08/21 01:24:00;;;;;;;34.88;9.15;;;;;;;17.48;100.00;99802.80;1748217;82;21604;-68
2022/08/21 01:26:30;;;;;;;34.58;8.53;;;;;;;17.47;100.00;99800.27;1748484;82;21041;-68
2022/08/21 01:29:07;;;;;;;31.30;8.13;;;;;;;17.49;100.00;99798.34;1748174;82;21895;-69
2022/08/21 01:31:34;;;;;;;43.35;8.73;;;;;;;17.45;100.00;99803.52;1748057;82;21113;-69
2022/08/21 01:34:00;;;;;;;42.60;8.50;;;;;;;17.44;100.00;99801.80;1747910;82;21042;-68
2022/08/21 01:36:27;;;;;;;35.30;8.38;;;;;;;17.42;100.00;99801.08;1748246;81;21292;-69
2022/08/21 01:38:53;;;;;;;39.60;8.53;;;;;;;17.39;100.00;99800.33;1748245;82;21530;-68
2022/08/21 01:41:20;;;;;;;33.65;8.75;;;;;;;17.40;100.00;99798.52;1747802;82;21200;-69
2022/08/21 01:43:46;;;;;;;43.73;8.05;;;;;;;17.35;100.00;99793.52;1747964;82;21120;-68
2022/08/21 01:46:13;;;;;;;40.23;8.68;;;;;;;17.33;100.00;99795.43;1748269;82;21013;-69
2022/08/21 01:48:40;;;;;;;34.38;8.53;;;;;;;17.33;100.00;99794.09;1747867;82;21041;-68
2022/08/21 01:51:06;;;;;;;37.23;7.78;;;;;;;17.34;100.00;99798.45;1748149;82;21060;-68
2022/08/21 01:53:36;;;;;;;40.90;7.90;;;;;;;17.31;100.00;99797.34;1737809;82;21220;-68
2022/08/21 01:56:05;;;;;;;43.52;8.80;;;;;;;17.31;100.00;99794.69;1718326;83;21541;-68
2022/08/21 01:58:33;;;;;;;46.70;7.92;;;;;;;17.30;100.00;99785.47;1718469;83;21053;-69
2022/08/21 02:01:01;;;;;;;45.63;8.93;;;;;;;17.31;100.00;99793.36;1730566;82;21009;-69
2022/08/21 02:03:29;;;;;;;38.98;8.00;;;;;;;17.31;100.00;99785.86;1748257;82;21115;-69
2022/08/21 02:05:55;;;;;;;43.85;8.05;;;;;;;17.31;100.00;99793.36;1748187;82;22099;-69
2022/08/21 02:08:25;;;;;;;36.28;8.38;;;;;;;17.31;100.00;99788.03;1748430;82;21041;-68
2022/08/21 02:10:52;;;;;;;47.17;9.78;;;;;;;17.31;100.00;99785.37;1748200;82;21036;-68
2022/08/21 02:13:19;;;;;;;46.23;8.68;;;;;;;17.30;100.00;99790.34;1748547;82;21081;-68
2022/08/21 02:15:46;;;;;;;36.98;7.83;;;;;;;17.32;100.00;99801.73;1748331;82;21014;-68
2022/08/21 02:18:12;;;;;;;38.95;8.28;;;;;;;17.32;100.00;99797.73;1748755;82;21126;-68
2022/08/21 02:20:43;;;;;;;43.75;8.28;;;;;;;17.33;100.00;99795.43;1748165;82;21557;-69
2022/08/21 02:23:10;;;;;;;45.98;9.15;;;;;;;17.29;100.00;99788.61;1748898;82;21074;-70
2022/08/21 02:25:38;;;;;;;43.02;8.30;;;;;;;17.32;100.00;99793.74;1748063;82;21045;-68
2022/08/21 02:28:08;;;;;;;35.92;8.65;;;;;;;17.34;100.00;99796.27;1748433;82;21585;-68
2022/08/21 02:30:39;;;;;;;39.35;8.28;;;;;;;17.31;100.00;99796.50;1748566;82;21548;-68
2022/08/21 02:33:07;;;;;;;42.83;9.30;;;;;;;17.30;100.00;99806.30;1748735;82;21042;-70
2022/08/21 02:35:34;;;;;;;38.75;7.95;;;;;;;17.29;100.00;99804.58;1748462;82;21049;-68
2022/08/21 02:38:05;;;;;;;33.13;8.68;;;;;;;17.28;100.00;99797.57;1745234;82;21053;-67
2022/08/21 02:40:35;;;;;;;47.50;8.83;;;;;;;17.26;100.00;99798.16;1742576;82;21600;-69
2022/08/21 02:43:02;;;;;;;26.53;7.80;;;;;;;17.26;100.00;99800.81;1742543;82;21847;-70
2022/08/21 02:45:29;;;;;;;36.93;8.68;;;;;;;17.24;100.00;99798.73;1742629;82;21029;-69
2022/08/21 02:47:59;;;;;;;38.33;7.72;;;;;;;17.22;100.00;99797.15;1742308;82;21029;-69
2022/08/21 02:50:30;;;;;;;37.80;7.62;;;;;;;17.20;100.00;99799.91;1742702;82;21037;-68
2022/08/21 02:52:56;;;;;;;38.30;8.23;;;;;;;17.18;100.00;99793.83;1739172;82;26412;-68
2022/08/21 02:55:26;;;;;;;36.80;8.25;;;;;;;17.18;100.00;99795.16;1712951;83;21086;-69
2022/08/21 02:57:54;;;;;;;44.03;8.48;;;;;;;17.20;100.00;99793.25;1712540;83;21010;-69
2022/08/21 03:00:23;;;;;;;48.55;8.70;;;;;;;17.19;100.00;99791.56;1716536;82;22496;-68
2022/08/21 03:02:53;;;;;;;42.58;9.63;;;;;;;17.16;100.00;99795.75;1742297;82;21194;-69
2022/08/21 03:05:20;;;;;;;41.28;7.70;;;;;;;17.13;100.00;99795.48;1742368;82;21037;-70
2022/08/21 03:07:48;;;;;;;31.85;7.67;;;;;;;17.11;100.00;99797.40;1742399;82;20991;-69
2022/08/21 03:10:15;;;;;;;22.10;6.58;;;;;;;17.11;100.00;99804.53;1742456;82;21022;-68
2022/08/21 03:12:41;;;;;;;28.83;7.53;;;;;;;17.14;100.00;99808.34;1742576;82;21037;-68
2022/08/21 03:15:12;;;;;;;32.98;8.40;;;;;;;17.16;100.00;99810.37;1713512;82;21042;-69
2022/08/21 03:17:38;;;;;;;38.05;7.33;;;;;;;17.18;100.00;99809.80;1742910;82;21513;-68
2022/08/21 03:20:06;;;;;;;38.10;8.20;;;;;;;17.17;100.00;99804.12;1742519;82;22139;-68
2022/08/21 03:22:34;;;;;;;38.60;7.83;;;;;;;17.17;100.00;99802.79;1742552;82;21551;-67
2022/08/21 03:25:00;;;;;;;42.40;8.15;;;;;;;17.16;100.00;99805.94;1742503;82;21702;-68
2022/08/21 03:27:28;;;;;;;39.38;8.23;;;;;;;17.19;100.00;99809.70;1742558;82;21588;-68
2022/08/21 03:29:54;;;;;;;46.18;7.42;;;;;;;17.25;100.00;99811.07;1742548;82;21505;-69
2022/08/21 03:32:21;;;;;;;35.70;6.92;;;;;;;17.31;100.00;99807.99;1742566;82;21097;-69
2022/08/21 03:34:47;;;;;;;34.20;6.75;;;;;;;17.43;100.00;99816.08;1742250;82;21042;-68
2022/08/21 03:37:14;;;;;;;31.42;7.72;;;;;;;17.55;100.00;99819.19;1742598;81;21014;-68
2022/08/21 03:39:41;;;;;;;30.23;6.83;;;;;;;17.67;100.00;99818.34;1748243;82;21074;-68
2022/08/21 03:42:09;;;;;;;34.50;6.37;;;;;;;17.76;100.00;99819.02;1748139;82;21022;-69
2022/08/21 03:44:36;;;;;;;35.03;6.55;;;;;;;17.90;100.00;99826.49;1748295;82;21361;-69
2022/08/21 03:47:02;;;;;;;34.65;6.95;;;;;;;18.02;100.00;99826.95;1748121;82;21045;-68
2022/08/21 03:49:29;;;;;;;37.08;7.12;;;;;;;18.15;100.00;99827.77;1748202;82;21021;-69
2022/08/21 03:51:56;;;;;;;39.40;6.65;;;;;;;18.35;100.00;99838.77;1748031;82;21050;-69
2022/08/21 03:54:23;;;;;;;32.70;7.62;;;;;;;18.52;100.00;99840.16;1748469;82;21049;-70
2022/08/21 03:56:49;;;;;;;35.40;6.12;;;;;;;18.64;100.00;99838.78;1748102;82;21827;-69
2022/08/21 03:59:16;;;;;;;36.58;8.05;;;;;;;18.77;100.00;99837.41;1748371;82;21640;-68
2022/08/21 04:02:01;;;;;;;41.53;7.08;;;;;;;18.90;100.00;99841.31;1747620;82;21711;-69
2022/08/21 04:04:28;;;;;;;34.10;6.08;;;;;;;19.00;100.00;99836.99;1748284;82;21588;-68
2022/08/21 04:06:56;;;;;;;35.92;5.90;;;;;;;19.15;100.00;99846.11;1748067;82;22198;-69
2022/08/21 04:09:23;;;;;;;48.17;7.05;;;;;;;19.28;100.00;99840.20;1748355;82;21103;-69
2022/08/21 04:11:50;;;;;;;36.08;7.22;;;;;;;19.39;100.00;99844.67;1747728;82;21510;-69
2022/08/21 04:14:17;;;;;;;36.28;6.92;;;;;;;19.45;100.00;99841.05;1747867;82;21688;-69
2022/08/21 04:16:44;;;;;;;42.38;6.90;;;;;;;19.60;100.00;99836.79;1747835;82;21045;-69
2022/08/21 04:19:11;;;;;;;38.53;6.60;;;;;;;19.72;100.00;99842.55;1748072;82;21073;-69
2022/08/21 04:21:38;;;;;;;32.53;6.87;;;;;;;19.84;100.00;99838.88;1748283;82;21068;-69
2022/08/21 04:24:07;;;;;;;48.55;6.85;;;;;;;19.93;100.00;99834.63;1747933;82;21037;-71
2022/08/21 04:26:35;;;;;;;34.27;7.10;;;;;;;20.11;100.00;99837.64;1748240;82;21092;-70
2022/08/21 04:29:01;;;;;;;29.27;6.47;;;;;;;20.25;100.00;99837.34;1748131;82;21033;-68
2022/08/21 04:31:28;;;;;;;36.13;6.70;;;;;;;20.33;100.00;99829.52;1747901;82;21045;-70
2022/08/21 04:33:56;;;;;;;29.15;5.85;;;;;;;20.46;100.00;99827.20;1747916;82;21174;-68
2022/08/21 04:36:23;;;;;;;36.58;6.97;;;;;;;20.62;100.00;99837.00;1748071;82;21080;-68
2022/08/21 04:38:50;;;;;;;27.55;6.20;;;;;;;20.78;100.00;99827.70;1744707;82;21002;-69
2022/08/21 04:41:16;;;;;;;27.35;6.03;;;;;;;20.92;100.00;99830.05;1742135;82;21014;-69
2022/08/21 04:43:43;;;;;;;22.75;5.78;;;;;;;21.12;100.00;99837.23;1742481;82;21077;-69
2022/08/21 04:46:09;;;;;;;28.02;6.22;;;;;;;21.25;100.00;99839.68;1742359;82;21309;-69
2022/08/21 04:48:36;;;;;;;31.82;6.85;;;;;;;21.42;99.73;99838.27;1742318;82;21089;-71
2022/08/21 04:51:10;;;;;;;22.27;5.87;;;;;;;21.53;98.31;99842.67;1742338;82;21053;-70
2022/08/21 04:53:43;;;;;;;26.15;6.55;;;;;;;21.63;99.00;99837.38;1742308;82;21617;-69
2022/08/21 04:56:15;;;;;;;25.08;6.03;;;;;;;21.81;96.91;99829.06;1742229;82;20991;-69
2022/08/21 04:58:42;;;;;;;33.65;6.75;;;;;;;21.82;93.99;99833.92;1742602;82;21111;-68
2022/08/21 05:01:13;;;;;;;34.55;7.12;;;;;;;21.79;94.93;99842.58;1742177;82;21037;-70
2022/08/21 05:03:40;;;;;;;30.55;6.85;;;;;;;21.89;94.30;99833.23;1742510;82;21081;-69
2022/08/21 05:06:09;;;;;;;28.30;6.80;;;;;;;21.91;93.24;99839.30;1742329;82;21014;-70
2022/08/21 05:08:35;;;;;;;23.67;5.92;;;;;;;21.89;93.25;99834.56;1742478;82;21108;-69
2022/08/21 05:11:03;;;;;;;29.72;6.35;;;;;;;21.78;92.45;99827.97;1689435;82;21238;-70
2022/08/21 05:13:30;;;;;;;25.02;6.28;;;;;;;21.87;93.07;99837.88;1742423;82;21550;-69
2022/08/21 05:15:56;;;;;;;30.65;6.35;;;;;;;22.14;91.72;99837.74;1742478;82;21050;-69
2022/08/21 05:18:23;;;;;;;32.30;6.50;;;;;;;22.29;90.55;99840.89;1742487;82;21648;-69
2022/08/21 05:20:50;;;;;;;25.55;5.92;;;;;;;22.55;90.29;99839.88;1742481;82;21041;-69
2022/08/21 05:23:17;;;;;;;31.00;6.70;;;;;;;22.77;88.11;99838.72;1742416;82;21242;-68
2022/08/21 05:25:44;;;;;;;32.63;5.70;;;;;;;23.01;86.75;99834.29;1742428;82;21089;-69
2022/08/21 05:28:10;;;;;;;27.32;5.60;;;;;;;23.23;85.64;99837.96;1742306;82;21073;-69
2022/08/21 05:30:37;;;;;;;31.37;6.10;;;;;;;23.44;84.78;99831.07;1742344;82;21056;-69
2022/08/21 05:33:05;;;;;;;20.17;5.47;;;;;;;23.63;82.90;99834.17;1742319;82;21054;-68
2022/08/21 05:35:32;;;;;;;25.88;5.62;;;;;;;23.85;82.74;99833.45;1742680;82;21387;-69
2022/08/21 05:37:59;;;;;;;17.80;4.87;;;;;;;24.04;81.45;99832.02;1742184;82;21138;-70
2022/08/21 05:40:26;;;;;;;29.12;5.72;;;;;;;24.20;78.21;99828.67;1742168;82;21039;-70
2022/08/21 05:42:54;;;;;;;27.15;5.60;;;;;;;24.24;79.81;99832.72;1742260;82;21057;-69
2022/08/21 05:45:26;;;;;;;26.73;5.55;;;;;;;24.25;78.02;99832.25;1742156;82;21014;-70
2022/08/21 05:47:52;;;;;;;24.05;4.83;;;;;;;24.34;78.51;99837.19;1742270;82;21080;-70
2022/08/21 05:53:14;;;;;;;24.12;5.08;;;;;;;24.27;78.77;99824.84;1843843;77;22638;-68
2022/08/21 05:55:41;;;;;;;35.40;5.85;;;;;;;24.43;72.50;99822.34;1785222;80;21088;-69
2022/08/21 05:58:08;;;;;;;29.42;5.62;;;;;;;24.79;70.94;99822.33;1785229;80;21246;-70
2022/08/21 06:00:34;;;;;;;31.20;6.25;;;;;;;25.05;68.89;99824.20;1784886;80;20926;-71
2022/08/21 06:03:01;;;;;;;28.25;4.80;;;;;;;24.91;68.81;99834.56;1785279;80;20985;-69
2022/08/21 06:05:27;;;;;;;24.82;5.80;;;;;;;24.91;69.03;99832.35;1785033;80;21033;-70
2022/08/21 06:07:53;;;;;;;28.20;5.45;;;;;;;24.95;69.38;99833.73;1785276;80;21028;-70
2022/08/21 06:10:22;;;;;;;30.05;5.60;;;;;;;25.09;69.76;99833.16;1785036;80;20985;-69
2022/08/21 06:12:54;;;;;;;25.52;4.97;;;;;;;25.29;68.82;99833.84;1784700;80;22067;-70
2022/08/21 06:15:23;;;;;;;25.00;5.00;;;;;;;25.57;68.00;99831.47;1785038;80;21055;-71
2022/08/21 06:17:49;;;;;;;31.40;5.67;;;;;;;25.66;67.07;99825.95;1784877;80;21053;-70
2022/08/21 06:20:16;;;;;;;23.22;4.62;;;;;;;25.48;66.26;99835.45;1785395;80;21084;-69
2022/08/21 06:22:43;;;;;;;30.77;5.28;;;;;;;25.13;67.04;99825.63;1811364;79;21141;-71
2022/08/21 06:25:10;;;;;;;30.72;5.95;;;;;;;25.07;68.34;99826.24;1817262;79;21014;-70
2022/08/21 06:27:37;;;;;;;36.53;5.75;;;;;;;25.24;67.56;99832.13;1817062;78;21001;-70
2022/08/21 06:30:05;;;;;;;24.60;4.95;;;;;;;25.45;66.89;99824.17;1817543;79;21668;-69
2022/08/21 06:32:32;;;;;;;29.02;5.72;;;;;;;25.68;66.15;99817.20;1816927;79;21001;-70
2022/08/21 06:35:01;;;;;;;31.30;6.22;;;;;;;25.87;65.38;99826.06;1816201;79;21596;-71
2022/08/21 06:37:27;;;;;;;33.58;5.35;;;;;;;26.09;65.07;99817.37;1816916;79;21084;-70
2022/08/21 06:39:53;;;;;;;29.57;5.15;;;;;;;26.36;62.48;99820.79;1817219;79;21037;-70
2022/08/21 06:42:20;;;;;;;38.65;6.03;;;;;;;26.50;62.49;99813.89;1817372;79;21002;-69
2022/08/21 06:44:47;;;;;;;37.35;6.10;;;;;;;26.79;61.15;99816.13;1817030;79;21560;-70
2022/08/21 06:47:13;;;;;;;40.95;5.50;;;;;;;26.96;60.21;99812.42;1817397;79;21829;-71
2022/08/21 06:49:40;;;;;;;28.02;4.85;;;;;;;27.04;60.84;99803.45;1817091;79;21505;-72
2022/08/21 06:52:11;;;;;;;27.45;5.08;;;;;;;27.43;60.20;99799.17;1785127;79;21597;-70
2022/08/21 06:54:38;;;;;;;34.25;5.30;;;;;;;27.77;59.54;99794.30;1811586;79;21116;-70
2022/08/21 06:57:05;;;;;;;42.98;6.45;;;;;;;28.24;56.70;99790.66;1810117;79;21104;-71
2022/08/21 06:59:32;;;;;;;37.40;5.05;;;;;;;28.41;55.96;99797.31;1810481;79;21307;-71
2022/08/21 07:01:59;;;;;;;30.88;5.78;;;;;;;28.49;54.26;99798.66;1810608;79;21546;-71
2022/08/21 07:04:26;;;;;;;38.67;6.05;;;;;;;28.48;49.73;99796.95;1809991;79;21089;-70
2022/08/21 07:06:53;;;;;;;32.08;5.00;;;;;;;28.45;48.38;99794.06;1810037;79;21077;-70
2022/08/21 07:09:20;;;;;;;34.88;5.40;;;;;;;28.40;49.61;99794.29;1810366;79;21093;-71
2022/08/21 07:11:49;;;;;;;30.43;5.15;;;;;;;28.53;48.86;99802.69;1809963;79;21191;-71
2022/08/21 07:14:16;;;;;;;28.15;5.47;;;;;;;28.64;49.08;99790.08;1810480;79;21052;-70
2022/08/21 07:16:43;;;;;;;32.30;4.65;;;;;;;28.84;48.33;99789.55;1810067;79;21532;-70
2022/08/21 07:19:09;;;;;;;31.90;5.67;;;;;;;28.79;48.20;99780.61;1810263;79;21038;-70
2022/08/21 07:21:36;;;;;;;43.98;5.70;;;;;;;28.76;48.83;99776.93;1810126;79;21057;-71
2022/08/21 07:24:03;;;;;;;38.63;5.97;;;;;;;28.76;48.83;99776.93;1810111;79;21344;-70
2022/08/21 07:26:30;;;;;;;42.53;5.90;;;;;;;28.94;48.98;99775.73;1810003;79;21034;-68
2022/08/21 07:28:56;;;;;;;46.58;5.40;;;;;;;29.26;47.47;99773.22;1810160;79;21030;-71
2022/08/21 07:31:24;;;;;;;27.20;4.85;;;;;;;29.50;47.03;99772.10;1809937;79;21033;-70
2022/08/21 07:33:51;;;;;;;30.08;5.30;;;;;;;29.80;46.53;99779.72;1809984;79;21041;-71
2022/08/21 07:36:22;;;;;;;36.55;5.53;;;;;;;29.97;46.03;99772.17;1810192;79;21501;-73
2022/08/21 07:38:49;;;;;;;30.30;5.37;;;;;;;29.89;45.13;99781.81;1809923;79;21100;-70
2022/08/21 07:41:20;;;;;;;34.27;5.83;;;;;;;29.67;46.42;99770.88;1809913;79;20998;-71
2022/08/21 07:43:46;;;;;;;39.90;5.85;;;;;;;29.93;45.89;99774.11;1809861;79;21022;-72
2022/08/21 07:46:13;;;;;;;25.60;5.10;;;;;;;30.02;44.23;99768.89;1810257;79;21046;-70
2022/08/21 07:48:40;;;;;;;27.35;5.28;;;;;;;30.18;44.84;99770.00;1809912;79;21133;-70
2022/08/21 07:51:09;;;;;;;34.92;5.20;;;;;;;30.29;43.74;99760.02;1810093;79;21014;-71
2022/08/21 07:53:37;;;;;;;39.42;6.05;;;;;;;30.08;44.69;99764.05;1802906;79;21073;-71
2022/08/21 07:56:05;;;;;;;46.42;5.37;;;;;;;30.04;44.20;99765.47;1808016;79;21026;-71
2022/08/21 07:58:32;;;;;;;36.93;5.20;;;;;;;30.04;44.02;99762.75;1811697;79;21061;-72
2022/08/21 08:00:59;;;;;;;32.20;5.83;;;;;;;30.16;44.19;99773.45;1812071;79;21234;-71
2022/08/21 08:03:26;;;;;;;43.15;5.67;;;;;;;30.02;43.42;99784.66;1812160;79;21455;-70
2022/08/21 08:05:53;;;;;;;36.65;5.35;;;;;;;29.71;43.77;99782.21;1812002;79;21608;-71
2022/08/21 08:08:21;;;;;;;33.92;4.97;;;;;;;29.45;44.83;99769.95;1811640;79;21056;-71
2022/08/21 08:10:49;;;;;;;33.85;4.60;;;;;;;29.47;45.12;99767.91;1812369;79;21319;-70
2022/08/21 08:13:16;;;;;;;23.25;4.60;;;;;;;29.47;45.12;99767.91;1812113;79;21193;-69
2022/08/21 08:15:43;;;;;;;35.33;5.03;;;;;;;29.42;46.27;99761.34;1811766;79;21111;-71
2022/08/21 08:18:11;;;;;;;31.80;5.83;;;;;;;29.42;46.27;99761.34;1811930;79;21084;-69
2022/08/21 08:20:38;;;;;;;32.25;4.65;;;;;;;29.73;45.74;99761.69;1811888;79;21025;-71
2022/08/21 08:23:04;;;;;;;37.17;5.40;;;;;;;30.03;45.39;99753.77;1811968;79;21093;-69
2022/08/21 08:25:31;;;;;;;37.83;5.62;;;;;;;30.38;43.76;99762.61;1811817;79;21227;-71
2022/08/21 08:27:57;;;;;;;36.45;5.10;;;;;;;30.46;43.05;99763.83;1811798;79;21033;-71
2022/08/21 08:30:24;;;;;;;37.50;5.25;;;;;;;30.58;43.38;99764.16;1811875;79;21170;-71
2022/08/21 08:32:50;;;;;;;28.47;5.05;;;;;;;30.63;42.76;99758.45;1811974;79;20986;-70
2022/08/21 08:35:17;;;;;;;36.95;5.95;;;;;;;30.64;42.60;99758.75;1811900;79;21045;-70
2022/08/21 08:37:45;;;;;;;25.72;4.72;;;;;;;30.60;41.54;99757.49;1811629;79;21763;-69
2022/08/21 08:40:20;;;;;;;35.83;5.33;;;;;;;30.38;41.91;99762.61;1812003;79;21068;-70
2022/08/21 08:42:47;;;;;;;26.65;5.15;;;;;;;30.08;42.41;99750.48;1810470;79;21048;-70
2022/08/21 08:45:18;;;;;;;40.03;6.08;;;;;;;30.20;43.48;99751.64;1812286;79;21116;-70
2022/08/21 08:47:49;;;;;;;38.20;6.03;;;;;;;30.27;42.72;99751.22;1789765;79;21561;-70
2022/08/21 08:50:30;;;;;;;41.50;5.78;;;;;;;30.15;43.20;99752.74;1789356;79;21234;-71
2022/08/21 08:53:03;;;;;;;;;;;;;;;30.24;43.10;99752.94;1813972;79;21049;-70
2022/08/21 08:55:42;;;;;;;35.85;5.08;;;;;;;30.28;43.04;99750.20;1810880;79;20181;-72
2022/08/21 08:58:26;;;;;;;32.38;4.67;;;;;;;30.48;43.17;99753.11;1811846;79;21013;-71
2022/08/21 09:00:54;;;;;;;35.28;4.85;;;;;;;30.84;41.63;99752.66;1811887;79;21080;-71
2022/08/21 09:03:24;;;;;;;38.05;4.78;;;;;;;31.04;40.64;99752.31;1811737;79;21110;-71
2022/08/21 09:06:06;;;;;;;43.60;6.30;;;;;;;31.18;41.29;99753.23;1811841;79;21065;-71
2022/08/21 09:08:41;;;;;;;37.17;4.95;;;;;;;31.34;40.25;99746.62;1811840;79;21044;-70
2022/08/21 09:11:16;;;;;;;43.45;6.20;;;;;;;31.46;39.53;99751.84;1812193;79;21049;-71
2022/08/21 09:14:18;;;;;;;25.48;5.33;;;;;;;31.32;39.30;99750.06;1810121;77;21002;-71
2022/08/21 09:16:59;;;;;;;28.20;5.22;;;;;;;31.21;38.79;99751.45;1812041;79;21963;-70
2022/08/21 09:19:56;;;;;;;28.73;4.08;;;;;;;31.24;38.35;99759.20;1709935;82;20982;-71
2022/08/21 09:22:58;;;;;;;31.65;4.45;;;;;;;30.92;38.72;99764.75;1773089;80;21020;-71
2022/08/21 09:25:28;;;;;;;29.00;4.83;;;;;;;30.70;39.69;99762.05;1740806;82;21002;-70
2022/08/21 09:27:54;;;;;;;42.10;5.70;;;;;;;30.72;39.43;99759.98;1742570;82;21536;-70
2022/08/21 09:30:29;;;;;;;31.02;4.92;;;;;;;30.77;40.56;99754.48;1773172;80;21781;-72
2022/08/21 09:32:56;;;;;;;37.00;4.87;;;;;;;30.87;40.47;99759.08;1740377;82;21074;-69
2022/08/21 09:35:23;;;;;;;39.40;5.05;;;;;;;31.04;40.57;99746.88;1773131;80;21025;-71
2022/08/21 09:38:02;;;;;;;33.30;5.40;;;;;;;31.28;40.36;99748.78;1719401;82;21666;-70
2022/08/21 09:40:45;;;;;;;39.10;4.80;;;;;;;31.47;38.76;99757.61;1773045;80;21592;-69
2022/08/21 09:43:21;;;;;;;32.55;4.30;;;;;;;31.13;38.51;99755.19;1740968;82;21111;-69
2022/08/21 09:45:49;;;;;;;35.43;4.85;;;;;;;30.81;39.52;99761.22;1772969;80;21032;-69
2022/08/21 09:48:20;;;;;;;29.07;4.78;;;;;;;30.63;40.00;99740.78;1742613;82;21095;-69
2022/08/21 09:50:48;;;;;;;29.30;4.62;;;;;;;30.55;40.23;99754.50;1773151;80;21529;-73
2022/08/21 09:53:26;;;;;;;30.30;5.03;;;;;;;30.42;40.56;99749.80;1777048;80;21470;-72
2022/08/21 09:58:48;;;;;;;38.95;4.60;;;;;;;30.84;39.22;99748.08;1820545;78;20998;-70
2022/08/21 10:01:19;;;;;;;35.92;5.62;;;;;;;30.21;39.92;99742.48;1820932;78;21001;-69
2022/08/21 10:03:46;;;;;;;36.35;4.78;;;;;;;30.19;40.35;99743.70;1820507;78;20997;-70
2022/08/21 10:06:26;;;;;;;34.73;4.92;;;;;;;30.39;39.79;99746.62;1820508;78;21084;-71
2022/08/21 10:09:10;;;;;;;42.40;5.50;;;;;;;30.50;39.50;99746.94;1820335;78;21335;-70
2022/08/21 10:11:39;;;;;;;40.43;4.33;;;;;;;30.68;38.82;99735.59;1820342;78;21089;-70
2022/08/21 10:14:35;;;;;;;32.38;4.62;;;;;;;30.72;39.58;99739.60;1820392;78;21040;-70
2022/08/21 10:17:17;;;;;;;32.33;4.30;;;;;;;30.93;38.82;99741.98;1820470;78;21053;-70
2022/08/21 10:20:01;;;;;;;58.13;5.95;;;;;;;30.91;39.67;99742.69;1820279;78;21084;-71
2022/08/21 10:22:55;;;;;;;33.10;4.47;;;;;;;30.80;39.70;99744.04;1780398;80;21102;-70
2022/08/21 10:25:27;;;;;;;50.15;5.05;;;;;;;30.93;39.38;99737.91;1781552;80;21021;-72
2022/08/21 10:28:11;;;;;;;36.28;4.42;;;;;;;31.02;39.25;99732.63;1750485;82;21052;-70
2022/08/21 10:30:52;;;;;;;33.00;5.40;;;;;;;31.07;38.49;99741.02;1781985;80;21072;-70
2022/08/21 10:33:45;;;;;;;35.10;5.15;;;;;;;31.08;38.86;99726.41;1781480;80;21040;-70
2022/08/21 10:36:40;;;;;;;33.50;4.15;;;;;;;31.42;38.07;99716.54;1775658;80;21604;-70
2022/08/21 10:39:35;;;;;;;33.38;4.33;;;;;;;31.64;37.54;99717.80;1748924;82;21592;-70
2022/08/21 10:42:25;;;;;;;24.70;3.90;;;;;;;31.56;37.36;99719.66;1820767;78;22057;-71
2022/08/21 10:45:14;;;;;;;34.45;5.17;;;;;;;31.55;36.89;99712.52;1820087;78;21592;-71
2022/08/21 10:47:50;;;;;;;39.13;5.15;;;;;;;31.42;37.50;99719.27;1820820;78;21087;-71
2022/08/21 10:50:37;;;;;;;33.65;4.95;;;;;;;31.17;37.41;99726.22;1820546;78;21222;-70
2022/08/21 10:53:39;;;;;;;44.65;5.80;;;;;;;30.86;38.02;99723.42;1818423;78;21159;-70
2022/08/21 10:56:30;;;;;;;73.83;8.00;;;;;;;30.69;38.08;99725.55;1811968;79;21560;-70
2022/08/21 10:59:25;;;;;;;41.85;4.87;;;;;;;30.58;38.32;99717.45;1811744;79;22078;-71
2022/08/21 11:02:00;;;;;;;30.08;5.15;;;;;;;30.65;38.04;99714.25;1800961;79;21065;-70
2022/08/21 11:04:38;;;;;;;34.40;4.95;;;;;;;30.66;39.38;99710.48;1811786;79;21228;-70
2022/08/21 11:07:12;;;;;;;32.55;4.40;;;;;;;30.91;38.94;99705.99;1812354;79;21084;-71
2022/08/21 11:09:39;;;;;;;36.95;4.60;;;;;;;31.24;38.86;99694.45;1810962;79;21119;-71
2022/08/21 11:12:27;;;;;;;34.78;5.00;;;;;;;31.58;37.55;99702.27;1812231;79;21038;-72
2022/08/21 11:15:02;;;;;;;33.60;4.62;;;;;;;31.53;37.25;99705.08;1811962;79;21006;-71
2022/08/21 11:17:47;;;;;;;35.05;4.45;;;;;;;31.38;37.37;99701.63;1812272;79;21106;-70
2022/08/21 11:20:45;;;;;;;33.85;4.95;;;;;;;31.24;37.68;99697.17;1812166;79;21597;-71
2022/08/21 11:23:39;;;;;;;34.70;4.45;;;;;;;31.22;37.41;99695.17;1812315;79;21053;-71
2022/08/21 11:26:12;;;;;;;40.40;5.08;;;;;;;31.01;38.07;99699.66;1812024;79;21073;-70
2022/08/21 11:28:50;;;;;;;21.77;3.50;;;;;;;30.71;37.75;99705.81;1811359;79;21073;-70
2022/08/21 11:31:22;;;;;;;37.55;5.83;;;;;;;30.48;38.42;99701.98;1810679;79;21285;-69
2022/08/21 11:34:27;;;;;;;39.15;5.33;;;;;;;30.63;38.88;99689.15;1811979;79;21013;-70
2022/08/21 11:37:14;;;;;;;37.90;4.85;;;;;;;30.79;38.17;99698.05;1812065;79;21220;-68
2022/08/21 11:40:32;;;;;;;38.17;5.45;;;;;;;30.83;38.63;99693.88;1811879;79;21057;-70
2022/08/21 11:43:28;;;;;;;39.78;4.97;;;;;;;30.87;38.49;99689.75;1811831;79;21451;-70